CheckWX is a tool to help pilots better visualize weather data.  It is not intended as a substitute for an official pre-flight weather briefing.

04:13:42 UTC

ENGM METAR
Oslo Gardermoen Airport
Oslo, Norway
Current

24 mins ago

ENGM 180350Z 00000KT 0500 R19R/0800N R01R/0450N FG VV001 02/02 Q1011
Observed
Feb-18 @ 03:50 UTC
Visibility
499 meters
Flight Rules
LIFR
Conditions
Fog
Cloud Levels
  • Vertical visibility at 100' AGL
Temperature
C / 36°F
Dewpoint
C / 36°F
Humidity
100%
Altimeter
29.85" Hg
Pressure
1010.92 hPa
Previous

54 mins ago

ENGM 180320Z 00000KT 0600 R19R/0700N R01R/0700N -DZ FG VV001 01/01 Q1011
Observed
Feb-18 @ 03:20 UTC
Visibility
595 meters
Flight Rules
LIFR
Conditions
Light Drizzle, Fog
Cloud Levels
  • Vertical visibility at 100' AGL
Temperature
C / 34°F
Dewpoint
C / 34°F
Humidity
100%
Altimeter
29.85" Hg
Pressure
1010.92 hPa
Previous

1 hour ago

ENGM 180250Z 17003KT 0500 R19R/0650N R01R/0550N -DZ FG VV001 01/01 Q1012
Observed
Feb-18 @ 02:50 UTC
Wind
  • 170° at 3 KTS
Visibility
499 meters
Flight Rules
LIFR
Conditions
Light Drizzle, Fog
Cloud Levels
  • Vertical visibility at 100' AGL
Temperature
C / 34°F
Dewpoint
C / 34°F
Humidity
100%
Altimeter
29.88" Hg
Pressure
1011.92 hPa